createdAt,value
2022-12-18T00:04:58.629Z,-3.91
2022-12-18T00:10:01.626Z,-3.83
2022-12-18T00:15:05.040Z,-3.77
2022-12-18T00:20:09.515Z,-3.68
2022-12-18T00:25:12.473Z,-3.69
2022-12-18T00:30:15.662Z,-3.67
2022-12-18T00:35:18.894Z,-3.64
2022-12-18T00:40:21.884Z,-3.60
2022-12-18T00:45:31.638Z,-3.51
2022-12-18T00:50:34.608Z,-3.38
2022-12-18T00:55:40.683Z,-3.23
2022-12-18T01:00:44.358Z,-3.23
2022-12-18T01:05:47.416Z,-3.22
2022-12-18T01:10:50.679Z,-3.25
2022-12-18T01:15:53.738Z,-3.26
2022-12-18T01:20:56.803Z,-3.28
2022-12-18T01:26:04.885Z,-3.21
2022-12-18T01:31:29.665Z,-3.08
2022-12-18T01:36:36.813Z,-2.98
2022-12-18T01:41:59.037Z,-2.92
2022-12-18T01:47:02.132Z,-2.87
2022-12-18T01:52:05.149Z,-2.89
2022-12-18T01:57:08.562Z,-2.93
2022-12-18T02:02:12.928Z,-2.94
2022-12-18T02:08:03.726Z,-2.94
2022-12-18T02:13:23.839Z,-2.89
2022-12-18T02:18:36.769Z,-2.84
2022-12-18T02:23:55.942Z,-2.76
2022-12-18T02:29:22.897Z,-2.65
2022-12-18T02:34:32.776Z,-2.62
2022-12-18T02:39:38.169Z,-2.63
2022-12-18T02:44:50.956Z,-2.66
2022-12-18T02:50:15.920Z,-2.69
2022-12-18T02:55:59.631Z,-2.72
2022-12-18T03:01:24.329Z,-2.68
2022-12-18T03:06:48.894Z,-2.64
2022-12-18T03:12:25.554Z,-2.64
2022-12-18T03:17:32.243Z,-2.77
2022-12-18T03:22:38.623Z,-2.90
2022-12-18T03:27:47.993Z,-2.96
2022-12-18T03:33:24.972Z,-2.98
2022-12-18T03:38:28.124Z,-2.94
2022-12-18T03:43:53.353Z,-2.89
2022-12-18T03:49:41.280Z,-2.80
2022-12-18T03:54:46.634Z,-2.74
2022-12-18T03:59:57.347Z,-2.73
2022-12-18T04:05:06.147Z,-2.77
2022-12-18T04:10:11.381Z,-2.82
2022-12-18T04:15:14.816Z,-2.94
2022-12-18T04:20:18.837Z,-3.06
2022-12-18T04:25:21.648Z,-3.15
2022-12-18T04:30:24.630Z,-3.12
2022-12-18T04:35:28.311Z,-3.02
2022-12-18T04:40:31.290Z,-3.00
2022-12-18T04:45:34.757Z,-3.00
2022-12-18T04:50:37.829Z,-3.05
2022-12-18T04:55:40.851Z,-3.12
2022-12-18T05:00:44.754Z,-3.22
2022-12-18T05:05:53.956Z,-3.27
2022-12-18T05:11:04.712Z,-3.26
2022-12-18T05:16:09.223Z,-3.26
2022-12-18T05:21:12.642Z,-3.25
2022-12-18T05:26:19.330Z,-3.23
2022-12-18T05:31:22.337Z,-3.22
2022-12-18T05:36:25.402Z,-3.23
2022-12-18T05:41:29.783Z,-3.25
2022-12-18T05:46:32.910Z,-3.21
2022-12-18T05:51:36.051Z,-3.18
2022-12-18T05:56:42.951Z,-3.14
2022-12-18T06:01:48.765Z,-3.14
2022-12-18T06:06:51.984Z,-3.16
2022-12-18T06:11:55.004Z,-3.22
2022-12-18T06:16:57.987Z,-3.28
2022-12-18T06:22:00.976Z,-3.32
2022-12-18T06:27:04.039Z,-3.30
2022-12-18T06:32:07.269Z,-3.25
2022-12-18T06:37:10.510Z,-3.22
2022-12-18T06:42:13.489Z,-3.20
2022-12-18T06:47:16.581Z,-3.22
2022-12-18T06:52:19.566Z,-3.21
2022-12-18T06:57:22.589Z,-3.24
2022-12-18T07:02:25.793Z,-3.33
2022-12-18T07:07:28.950Z,-3.41
2022-12-18T07:12:31.950Z,-3.33
2022-12-18T07:17:35.339Z,-3.27
2022-12-18T07:22:38.351Z,-3.19
2022-12-18T07:27:41.346Z,-3.15
2022-12-18T07:32:44.305Z,-3.10
2022-12-18T07:37:47.299Z,-3.08
2022-12-18T07:42:50.251Z,-3.04
2022-12-18T07:47:53.218Z,-2.99
2022-12-18T07:52:56.204Z,-2.97
2022-12-18T07:58:03.730Z,-2.92
2022-12-18T08:03:06.776Z,-2.88
2022-12-18T08:08:09.864Z,-2.72
2022-12-18T08:13:12.831Z,-2.52
2022-12-18T08:18:15.831Z,-2.37
2022-12-18T08:23:18.811Z,-2.33
2022-12-18T08:28:21.800Z,-2.23
2022-12-18T08:33:25.208Z,-2.18
2022-12-18T08:38:28.978Z,-2.16
2022-12-18T08:43:50.779Z,-2.15
2022-12-18T08:48:56.031Z,-2.12
2022-12-18T08:53:59.148Z,-2.13
2022-12-18T08:59:02.716Z,-2.07
2022-12-18T09:04:05.805Z,-1.98
2022-12-18T09:09:10.983Z,-1.93
2022-12-18T09:14:13.987Z,-1.89
2022-12-18T09:19:16.988Z,-1.91
2022-12-18T09:24:20.040Z,-1.90
2022-12-18T09:29:23.034Z,-1.84
2022-12-18T09:34:26.019Z,-1.73
2022-12-18T09:39:29.483Z,-1.73
2022-12-18T09:44:45.793Z,-1.74
2022-12-18T09:49:55.092Z,-1.75
2022-12-18T09:55:13.007Z,-1.65
2022-12-18T10:00:26.893Z,-1.50
2022-12-18T10:05:39.044Z,-1.44
2022-12-18T10:10:55.866Z,-1.44
2022-12-18T10:16:11.420Z,-1.49
2022-12-18T10:21:31.312Z,-1.58
2022-12-18T10:26:34.379Z,-1.61
2022-12-18T10:31:37.414Z,-1.60
2022-12-18T10:36:40.629Z,-1.64
2022-12-18T10:41:43.694Z,-1.68
2022-12-18T10:46:50.229Z,-1.76
2022-12-18T10:52:07.152Z,-1.76
2022-12-18T10:57:31.035Z,-1.78
2022-12-18T11:02:39.871Z,-1.73
2022-12-18T11:07:51.942Z,-1.57
2022-12-18T11:12:55.034Z,-1.44
2022-12-18T11:17:58.069Z,-1.42
2022-12-18T11:23:15.190Z,-1.40
2022-12-18T11:28:42.614Z,-1.44
2022-12-18T11:34:28.067Z,-1.39
2022-12-18T11:39:42.233Z,-1.35
2022-12-18T11:44:53.947Z,-1.29
2022-12-18T11:50:02.425Z,-1.22
2022-12-18T11:55:30.184Z,-1.26
2022-12-18T12:00:43.460Z,-1.29
2022-12-18T12:06:11.640Z,-1.33
2022-12-18T12:11:55.967Z,-1.43
2022-12-18T12:17:06.092Z,-1.38
2022-12-18T12:22:36.233Z,-1.29
2022-12-18T12:28:21.621Z,-1.33
2022-12-18T12:33:54.936Z,-1.29
2022-12-18T12:39:03.070Z,-1.32
2022-12-18T12:44:15.180Z,-1.44
2022-12-18T12:49:25.464Z,-1.52
2022-12-18T12:54:29.886Z,-1.56
2022-12-18T13:00:00.540Z,-1.65
2022-12-18T13:05:46.659Z,-1.71
2022-12-18T13:10:50.483Z,-1.80
2022-12-18T13:16:09.269Z,-1.88
2022-12-18T13:21:34.710Z,-1.92
2022-12-18T13:26:37.822Z,-2.03
2022-12-18T13:31:41.176Z,-2.09
2022-12-18T13:36:46.783Z,-1.94
2022-12-18T13:42:31.120Z,-1.79
2022-12-18T13:47:41.511Z,-1.77
2022-12-18T13:52:44.822Z,-1.77
2022-12-18T13:57:48.066Z,-1.86
2022-12-18T14:02:52.294Z,-1.94
2022-12-18T14:08:00.649Z,-2.02
2022-12-18T14:13:09.422Z,-2.09
2022-12-18T14:18:37.984Z,-2.12
2022-12-18T14:23:43.785Z,-2.20
2022-12-18T14:28:47.526Z,-2.29
2022-12-18T14:33:52.787Z,-2.35
2022-12-18T14:38:59.058Z,-2.38
2022-12-18T14:44:12.311Z,-2.40
2022-12-18T14:49:33.693Z,-2.42
2022-12-18T14:54:38.600Z,-2.43
2022-12-18T14:59:41.736Z,-2.48
2022-12-18T15:04:45.153Z,-2.50
2022-12-18T15:10:18.738Z,-2.51
2022-12-18T15:15:34.301Z,-2.51
2022-12-18T15:20:43.629Z,-2.48
2022-12-18T15:25:49.062Z,-2.37
2022-12-18T15:31:09.903Z,-2.31
2022-12-18T15:36:26.179Z,-2.35
2022-12-18T15:41:35.220Z,-2.35
2022-12-18T15:46:39.204Z,-2.33
2022-12-18T15:51:43.563Z,-2.37
2022-12-18T15:57:06.745Z,-2.36
2022-12-18T16:02:19.331Z,-2.43
2022-12-18T16:07:25.018Z,-2.49
2022-12-18T16:12:28.771Z,-2.49
2022-12-18T16:17:32.293Z,-2.48
2022-12-18T16:22:35.452Z,-2.49
2022-12-18T16:27:38.438Z,-2.53
2022-12-18T16:32:41.464Z,-2.56
2022-12-18T16:37:45.129Z,-2.54
2022-12-18T16:42:48.160Z,-2.59
2022-12-18T16:47:51.162Z,-2.73
2022-12-18T16:52:54.158Z,-2.80
2022-12-18T16:57:57.144Z,-2.77
2022-12-18T17:03:00.221Z,-2.67
2022-12-18T17:08:04.128Z,-2.65
2022-12-18T17:13:07.277Z,-2.73
2022-12-18T17:18:10.280Z,-2.82
2022-12-18T17:23:13.314Z,-2.91
2022-12-18T17:28:16.392Z,-2.95
2022-12-18T17:33:20.219Z,-2.97
2022-12-18T17:38:23.322Z,-3.04
2022-12-18T17:43:26.427Z,-3.16
2022-12-18T17:48:30.588Z,-3.26
2022-12-18T17:53:34.684Z,-3.27
2022-12-18T17:58:38.100Z,-3.33
2022-12-18T18:03:42.571Z,-3.25
2022-12-18T18:08:46.053Z,-3.14
2022-12-18T18:14:01.405Z,-3.06
2022-12-18T18:19:08.864Z,-3.00
2022-12-18T18:24:15.608Z,-3.04
2022-12-18T18:29:22.644Z,-3.22
2022-12-18T18:34:29.478Z,-3.21
2022-12-18T18:39:32.953Z,-3.35
2022-12-18T18:44:36.083Z,-3.37
2022-12-18T18:49:39.163Z,-3.40
2022-12-18T18:55:03.619Z,-3.52
2022-12-18T19:00:06.936Z,-3.56
2022-12-18T19:05:10.232Z,-3.61
2022-12-18T19:10:13.397Z,-3.63
2022-12-18T19:15:16.503Z,-3.55
2022-12-18T19:20:19.916Z,-3.51
2022-12-18T19:25:40.723Z,-3.54
2022-12-18T19:30:45.788Z,-3.50
2022-12-18T19:35:50.274Z,-3.64
2022-12-18T19:40:53.639Z,-3.69
2022-12-18T19:45:56.832Z,-3.80
2022-12-18T19:51:06.891Z,-3.87
2022-12-18T19:56:14.029Z,-3.83
2022-12-18T20:01:19.849Z,-3.88
2022-12-18T20:06:48.799Z,-4.03
2022-12-18T20:11:52.215Z,-4.17
2022-12-18T20:16:56.413Z,-4.26
2022-12-18T20:21:59.960Z,-4.29
2022-12-18T20:27:03.169Z,-4.32
2022-12-18T20:32:06.721Z,-4.27
2022-12-18T20:37:10.141Z,-4.31
2022-12-18T20:42:15.253Z,-4.29
2022-12-18T20:47:18.373Z,-4.07
2022-12-18T20:52:22.289Z,-4.00
2022-12-18T20:57:26.926Z,-3.96
2022-12-18T21:02:30.499Z,-3.94
2022-12-18T21:07:33.752Z,-3.90
2022-12-18T21:12:45.307Z,-3.95
2022-12-18T21:18:02.113Z,-4.00
2022-12-18T21:23:16.049Z,-4.12
2022-12-18T21:28:19.865Z,-4.29
2022-12-18T21:33:22.971Z,-4.32
2022-12-18T21:38:28.147Z,-4.28
2022-12-18T21:43:50.092Z,-4.24
2022-12-18T21:48:53.177Z,-4.29
2022-12-18T21:53:57.107Z,-4.32
2022-12-18T21:59:00.038Z,-4.47
2022-12-18T22:04:03.154Z,-4.43
2022-12-18T22:09:06.840Z,-4.48
2022-12-18T22:14:10.551Z,-4.53
2022-12-18T22:19:14.870Z,-4.49
2022-12-18T22:24:29.408Z,-4.56
2022-12-18T22:29:51.203Z,-4.57
2022-12-18T22:34:54.206Z,-4.59
2022-12-18T22:39:57.313Z,-4.58
2022-12-18T22:45:01.141Z,-4.55
2022-12-18T22:50:05.998Z,-4.69
2022-12-18T22:55:09.703Z,-4.86
2022-12-18T23:00:13.966Z,-4.84
2022-12-18T23:05:17.280Z,-4.86
2022-12-18T23:10:20.556Z,-4.88
2022-12-18T23:15:28.125Z,-4.84
2022-12-18T23:20:31.582Z,-4.83
2022-12-18T23:25:34.892Z,-4.83
2022-12-18T23:30:37.933Z,-4.93
2022-12-18T23:35:41.001Z,-4.88
2022-12-18T23:40:44.112Z,-4.84
2022-12-18T23:45:53.969Z,-4.85
2022-12-18T23:50:58.727Z,-4.88
2022-12-18T23:56:03.367Z,-4.97
